« Back
NWS Peachtree City, Ga » Text Product » MCN Terminal Aerodrome Forecast

Printer-friendly Version
Current Version              Previous Versions:   1  2  3  4  5  6  7  8  9  

Terminal Aerodrome Forecast

FTUS42 KFFC 242328
KMCN 242328Z 2500/2524 09003KT P6SM FEW150
     FM250800 09006KT P6SM BKN025
     FM251400 09008KT P6SM BKN030
     FM251600 09009G16KT P6SM BKN040
     FM252100 08010KT P6SM SCT045=

USA.gov is the U.S. government's official web portal to all federal, state and local government web resources and services.